sensor_id;sensor_type;location;lat;lon;timestamp;pressure;altitude;pressure_sealevel;temperature;humidity
78751;BME280;68070;50.954;11.060;2023-03-01T00:00:31;100346.06;;;-5.48;75.93
78751;BME280;68070;50.954;11.060;2023-03-01T00:03:16;100350.72;;;-5.53;75.86
78751;BME280;68070;50.954;11.060;2023-03-01T00:06:01;100350.58;;;-5.48;77.12
78751;BME280;68070;50.954;11.060;2023-03-01T00:08:45;100352.07;;;-5.41;78.54
78751;BME280;68070;50.954;11.060;2023-03-01T00:11:31;100346.19;;;-5.38;77.56
78751;BME280;68070;50.954;11.060;2023-03-01T00:14:16;100344.61;;;-5.39;76.45
78751;BME280;68070;50.954;11.060;2023-03-01T00:17:01;100346.00;;;-5.40;76.67
78751;BME280;68070;50.954;11.060;2023-03-01T00:19:46;100346.92;;;-5.34;75.97
78751;BME280;68070;50.954;11.060;2023-03-01T00:22:30;100353.41;;;-5.28;77.01
78751;BME280;68070;50.954;11.060;2023-03-01T00:25:14;100352.52;;;-5.31;77.21
78751;BME280;68070;50.954;11.060;2023-03-01T00:28:00;100353.21;;;-5.30;77.54
78751;BME280;68070;50.954;11.060;2023-03-01T00:30:44;100353.05;;;-5.30;76.71
78751;BME280;68070;50.954;11.060;2023-03-01T00:33:29;100353.59;;;-5.29;75.76
78751;BME280;68070;50.954;11.060;2023-03-01T00:36:15;100347.42;;;-5.20;76.69
78751;BME280;68070;50.954;11.060;2023-03-01T00:39:02;100352.48;;;-5.18;77.35
78751;BME280;68070;50.954;11.060;2023-03-01T00:41:47;100352.64;;;-5.20;77.42
78751;BME280;68070;50.954;11.060;2023-03-01T00:44:31;100350.39;;;-5.19;76.56
78751;BME280;68070;50.954;11.060;2023-03-01T00:47:16;100349.36;;;-5.18;76.64
78751;BME280;68070;50.954;11.060;2023-03-01T00:50:00;100349.04;;;-5.14;78.49
78751;BME280;68070;50.954;11.060;2023-03-01T00:52:46;100344.98;;;-5.02;77.01
78751;BME280;68070;50.954;11.060;2023-03-01T00:55:31;100342.23;;;-4.99;76.98
78751;BME280;68070;50.954;11.060;2023-03-01T00:58:15;100336.86;;;-4.97;76.93
78751;BME280;68070;50.954;11.060;2023-03-01T01:01:00;100332.56;;;-4.96;76.61
78751;BME280;68070;50.954;11.060;2023-03-01T01:03:54;100332.02;;;-4.96;77.37
78751;BME280;68070;50.954;11.060;2023-03-01T01:06:41;100331.80;;;-5.01;76.45
78751;BME280;68070;50.954;11.060;2023-03-01T01:09:26;100325.20;;;-5.03;76.19
78751;BME280;68070;50.954;11.060;2023-03-01T01:12:12;100328.20;;;-4.97;76.39
78751;BME280;68070;50.954;11.060;2023-03-01T01:14:56;100324.25;;;-4.92;76.59
78751;BME280;68070;50.954;11.060;2023-03-01T01:17:40;100321.98;;;-4.93;77.27
78751;BME280;68070;50.954;11.060;2023-03-01T01:20:25;100319.55;;;-4.95;77.05
78751;BME280;68070;50.954;11.060;2023-03-01T01:23:10;100316.26;;;-4.94;77.03
78751;BME280;68070;50.954;11.060;2023-03-01T01:25:56;100318.05;;;-4.85;76.67
78751;BME280;68070;50.954;11.060;2023-03-01T01:28:40;100316.54;;;-4.80;77.81
78751;BME280;68070;50.954;11.060;2023-03-01T01:31:26;100311.33;;;-4.80;78.05
78751;BME280;68070;50.954;11.060;2023-03-01T01:34:15;100304.55;;;-4.79;77.43
78751;BME280;68070;50.954;11.060;2023-03-01T01:36:59;100301.77;;;-4.81;77.19
78751;BME280;68070;50.954;11.060;2023-03-01T01:39:47;100301.58;;;-4.83;77.09
78751;BME280;68070;50.954;11.060;2023-03-01T01:42:31;100295.36;;;-4.80;76.81
78751;BME280;68070;50.954;11.060;2023-03-01T01:45:36;100291.38;;;-4.76;76.71
78751;BME280;68070;50.954;11.060;2023-03-01T01:48:22;100287.73;;;-4.77;77.06
78751;BME280;68070;50.954;11.060;2023-03-01T01:51:12;100277.13;;;-4.78;76.91
78751;BME280;68070;50.954;11.060;2023-03-01T01:53:59;100274.69;;;-4.80;77.67
78751;BME280;68070;50.954;11.060;2023-03-01T01:56:53;100271.15;;;-4.87;78.05
78751;BME280;68070;50.954;11.060;2023-03-01T01:59:43;100263.48;;;-4.94;76.70
78751;BME280;68070;50.954;11.060;2023-03-01T02:02:30;100258.95;;;-4.94;76.34
78751;BME280;68070;50.954;11.060;2023-03-01T02:05:42;100261.59;;;-4.90;76.41
78751;BME280;68070;50.954;11.060;2023-03-01T02:08:30;100257.92;;;-4.92;77.22
78751;BME280;68070;50.954;11.060;2023-03-01T02:11:17;100246.61;;;-4.96;77.15
78751;BME280;68070;50.954;11.060;2023-03-01T02:14:01;100244.83;;;-5.02;76.85
78751;BME280;68070;50.954;11.060;2023-03-01T02:16:46;100241.11;;;-5.12;76.94
78751;BME280;68070;50.954;11.060;2023-03-01T02:19:57;100238.24;;;-5.22;77.03
78751;BME280;68070;50.954;11.060;2023-03-01T02:22:51;100238.30;;;-5.35;76.80
78751;BME280;68070;50.954;11.060;2023-03-01T02:28:44;100245.16;;;-5.44;76.91
78751;BME280;68070;50.954;11.060;2023-03-01T02:31:31;100243.73;;;-5.49;77.70
78751;BME280;68070;50.954;11.060;2023-03-01T02:34:31;100243.85;;;-5.54;77.90
78751;BME280;68070;50.954;11.060;2023-03-01T02:37:17;100247.43;;;-5.60;77.86
78751;BME280;68070;50.954;11.060;2023-03-01T02:40:16;100246.36;;;-5.64;77.83
78751;BME280;68070;50.954;11.060;2023-03-01T02:43:04;100247.07;;;-5.63;77.54
78751;BME280;68070;50.954;11.060;2023-03-01T02:45:53;100248.48;;;-5.58;77.89
78751;BME280;68070;50.954;11.060;2023-03-01T02:48:51;100246.20;;;-5.63;78.56
78751;BME280;68070;50.954;11.060;2023-03-01T02:51:52;100245.79;;;-5.69;78.36
78751;BME280;68070;50.954;11.060;2023-03-01T02:57:46;100243.20;;;-5.83;77.85
78751;BME280;68070;50.954;11.060;2023-03-01T03:00:38;100236.56;;;-5.91;77.86
78751;BME280;68070;50.954;11.060;2023-03-01T03:03:25;100236.64;;;-6.00;78.10
78751;BME280;68070;50.954;11.060;2023-03-01T03:06:09;100238.13;;;-6.05;77.97
78751;BME280;68070;50.954;11.060;2023-03-01T03:08:54;100236.80;;;-6.01;79.01
78751;BME280;68070;50.954;11.060;2023-03-01T03:11:38;100239.77;;;-6.00;79.90
78751;BME280;68070;50.954;11.060;2023-03-01T03:14:28;100241.83;;;-6.02;79.56
78751;BME280;68070;50.954;11.060;2023-03-01T03:17:12;100246.48;;;-6.03;80.09
78751;BME280;68070;50.954;11.060;2023-03-01T03:19:57;100244.88;;;-6.06;79.55
78751;BME280;68070;50.954;11.060;2023-03-01T03:22:42;100247.92;;;-5.98;80.14
78751;BME280;68070;50.954;11.060;2023-03-01T03:25:28;100251.22;;;-5.97;79.90
78751;BME280;68070;50.954;11.060;2023-03-01T03:28:13;100251.67;;;-6.03;79.87
78751;BME280;68070;50.954;11.060;2023-03-01T03:30:57;100250.59;;;-6.07;79.89
78751;BME280;68070;50.954;11.060;2023-03-01T03:33:42;100248.41;;;-6.15;79.50
78751;BME280;68070;50.954;11.060;2023-03-01T03:36:26;100245.38;;;-6.23;79.41
78751;BME280;68070;50.954;11.060;2023-03-01T03:39:11;100242.63;;;-6.21;79.99
78751;BME280;68070;50.954;11.060;2023-03-01T03:41:55;100242.81;;;-6.19;80.32
78751;BME280;68070;50.954;11.060;2023-03-01T03:44:40;100239.31;;;-6.23;80.94
78751;BME280;68070;50.954;11.060;2023-03-01T03:47:25;100233.88;;;-6.28;81.64
78751;BME280;68070;50.954;11.060;2023-03-01T03:50:10;100226.87;;;-6.34;80.45
78751;BME280;68070;50.954;11.060;2023-03-01T03:52:55;100222.67;;;-6.38;81.03
78751;BME280;68070;50.954;11.060;2023-03-01T03:55:39;100218.17;;;-6.38;79.96
78751;BME280;68070;50.954;11.060;2023-03-01T03:58:25;100223.89;;;-6.38;80.81
78751;BME280;68070;50.954;11.060;2023-03-01T04:01:10;100216.42;;;-6.39;81.72
78751;BME280;68070;50.954;11.060;2023-03-01T04:03:54;100212.80;;;-6.37;81.04
78751;BME280;68070;50.954;11.060;2023-03-01T04:06:39;100213.00;;;-6.36;80.56
78751;BME280;68070;50.954;11.060;2023-03-01T04:09:23;100216.19;;;-6.29;80.50
78751;BME280;68070;50.954;11.060;2023-03-01T04:12:08;100212.06;;;-6.27;81.02
78751;BME280;68070;50.954;11.060;2023-03-01T04:14:53;100205.77;;;-6.31;81.31
78751;BME280;68070;50.954;11.060;2023-03-01T04:17:42;100211.63;;;-6.34;81.48
78751;BME280;68070;50.954;11.060;2023-03-01T04:20:29;100203.76;;;-6.39;81.30
78751;BME280;68070;50.954;11.060;2023-03-01T04:23:17;100207.04;;;-6.40;80.58
78751;BME280;68070;50.954;11.060;2023-03-01T04:26:04;100211.52;;;-6.42;80.60
78751;BME280;68070;50.954;11.060;2023-03-01T04:28:49;100208.82;;;-6.51;80.57
78751;BME280;68070;50.954;11.060;2023-03-01T04:31:34;100206.66;;;-6.57;81.07
78751;BME280;68070;50.954;11.060;2023-03-01T04:34:19;100210.59;;;-6.61;81.05
78751;BME280;68070;50.954;11.060;2023-03-01T04:37:03;100210.44;;;-6.60;80.96
78751;BME280;68070;50.954;11.060;2023-03-01T04:39:47;100205.79;;;-6.58;80.76
78751;BME280;68070;50.954;11.060;2023-03-01T04:42:32;100203.83;;;-6.62;80.78
78751;BME280;68070;50.954;11.060;2023-03-01T04:45:17;100205.84;;;-6.65;80.91
78751;BME280;68070;50.954;11.060;2023-03-01T04:48:02;100204.94;;;-6.69;81.22
78751;BME280;68070;50.954;11.060;2023-03-01T04:50:47;100204.87;;;-6.74;81.19
78751;BME280;68070;50.954;11.060;2023-03-01T04:53:33;100205.98;;;-6.81;80.72
78751;BME280;68070;50.954;11.060;2023-03-01T04:56:19;100200.29;;;-6.79;80.77
78751;BME280;68070;50.954;11.060;2023-03-01T04:59:04;100193.70;;;-6.81;81.10
78751;BME280;68070;50.954;11.060;2023-03-01T05:01:50;100198.30;;;-6.86;81.51
78751;BME280;68070;50.954;11.060;2023-03-01T05:04:35;100200.16;;;-6.88;81.49
78751;BME280;68070;50.954;11.060;2023-03-01T05:07:19;100202.56;;;-6.89;81.60
78751;BME280;68070;50.954;11.060;2023-03-01T05:10:04;100197.77;;;-6.87;81.27
78751;BME280;68070;50.954;11.060;2023-03-01T05:12:48;100192.66;;;-6.80;81.44
78751;BME280;68070;50.954;11.060;2023-03-01T05:15:34;100186.95;;;-6.80;81.61
78751;BME280;68070;50.954;11.060;2023-03-01T05:18:20;100187.11;;;-6.82;82.16
78751;BME280;68070;50.954;11.060;2023-03-01T05:21:08;100191.00;;;-6.88;81.85
78751;BME280;68070;50.954;11.060;2023-03-01T05:23:54;100192.81;;;-6.95;81.12
78751;BME280;68070;50.954;11.060;2023-03-01T05:26:38;100191.75;;;-6.97;80.68
78751;BME280;68070;50.954;11.060;2023-03-01T05:29:25;100193.02;;;-6.92;81.06
78751;BME280;68070;50.954;11.060;2023-03-01T05:32:10;100189.36;;;-6.94;81.68
78751;BME280;68070;50.954;11.060;2023-03-01T05:34:59;100190.63;;;-7.01;81.41
78751;BME280;68070;50.954;11.060;2023-03-01T05:37:45;100189.01;;;-7.06;81.38
78751;BME280;68070;50.954;11.060;2023-03-01T05:40:32;100187.73;;;-7.10;81.53
78751;BME280;68070;50.954;11.060;2023-03-01T05:43:17;100192.83;;;-7.05;81.60
78751;BME280;68070;50.954;11.060;2023-03-01T05:46:02;100195.13;;;-7.01;81.12
78751;BME280;68070;50.954;11.060;2023-03-01T05:48:46;100191.80;;;-7.04;82.35
78751;BME280;68070;50.954;11.060;2023-03-01T05:51:33;100190.73;;;-7.07;82.01
78751;BME280;68070;50.954;11.060;2023-03-01T05:54:20;100193.41;;;-7.12;81.47
78751;BME280;68070;50.954;11.060;2023-03-01T05:57:04;100189.90;;;-7.15;81.43
78751;BME280;68070;50.954;11.060;2023-03-01T05:59:49;100192.32;;;-7.16;81.57
78751;BME280;68070;50.954;11.060;2023-03-01T06:02:33;100192.80;;;-7.08;81.30
78751;BME280;68070;50.954;11.060;2023-03-01T06:05:18;100191.63;;;-7.05;81.44
78751;BME280;68070;50.954;11.060;2023-03-01T06:08:03;100194.05;;;-7.03;81.54
78751;BME280;68070;50.954;11.060;2023-03-01T06:10:47;100192.52;;;-7.01;81.41
78751;BME280;68070;50.954;11.060;2023-03-01T06:13:32;100189.98;;;-6.98;81.26
78751;BME280;68070;50.954;11.060;2023-03-01T06:16:16;100192.14;;;-6.93;80.94
78751;BME280;68070;50.954;11.060;2023-03-01T06:19:02;100195.11;;;-6.79;80.97
78751;BME280;68070;50.954;11.060;2023-03-01T06:21:46;100196.11;;;-6.69;81.36
78751;BME280;68070;50.954;11.060;2023-03-01T06:24:30;100202.07;;;-6.63;82.08
78751;BME280;68070;50.954;11.060;2023-03-01T06:27:15;100199.21;;;-6.57;81.59
78751;BME280;68070;50.954;11.060;2023-03-01T06:30:00;100196.66;;;-6.52;81.94
78751;BME280;68070;50.954;11.060;2023-03-01T06:32:44;100201.48;;;-6.42;80.80
78751;BME280;68070;50.954;11.060;2023-03-01T06:35:29;100199.91;;;-6.29;80.83
78751;BME280;68070;50.954;11.060;2023-03-01T06:38:14;100204.17;;;-6.21;80.86
78751;BME280;68070;50.954;11.060;2023-03-01T06:40:59;100201.67;;;-6.12;80.96
78751;BME280;68070;50.954;11.060;2023-03-01T06:43:43;100200.56;;;-6.02;80.85
78751;BME280;68070;50.954;11.060;2023-03-01T06:46:28;100202.23;;;-5.92;80.41
78751;BME280;68070;50.954;11.060;2023-03-01T06:49:12;100204.71;;;-5.83;80.06
78751;BME280;68070;50.954;11.060;2023-03-01T06:51:57;100207.14;;;-5.68;79.71
78751;BME280;68070;50.954;11.060;2023-03-01T06:54:41;100209.70;;;-5.52;80.00
78751;BME280;68070;50.954;11.060;2023-03-01T06:57:26;100208.60;;;-5.41;79.93
78751;BME280;68070;50.954;11.060;2023-03-01T07:00:11;100205.23;;;-5.27;79.75
78751;BME280;68070;50.954;11.060;2023-03-01T07:02:58;100205.34;;;-5.14;79.66
78751;BME280;68070;50.954;11.060;2023-03-01T07:05:42;100211.48;;;-5.04;79.81
78751;BME280;68070;50.954;11.060;2023-03-01T07:08:27;100204.96;;;-4.96;80.01
78751;BME280;68070;50.954;11.060;2023-03-01T07:11:11;100197.38;;;-4.85;79.65
78751;BME280;68070;50.954;11.060;2023-03-01T07:13:56;100191.06;;;-4.66;78.90
78751;BME280;68070;50.954;11.060;2023-03-01T07:16:40;100193.45;;;-4.42;78.88
78751;BME280;68070;50.954;11.060;2023-03-01T07:19:25;100195.09;;;-4.21;78.87
78751;BME280;68070;50.954;11.060;2023-03-01T07:22:09;100200.89;;;-4.05;79.15
78751;BME280;68070;50.954;11.060;2023-03-01T07:24:54;100201.64;;;-3.86;78.49
78751;BME280;68070;50.954;11.060;2023-03-01T07:27:39;100200.64;;;-3.65;78.37
78751;BME280;68070;50.954;11.060;2023-03-01T07:30:24;100192.14;;;-3.48;78.10
78751;BME280;68070;50.954;11.060;2023-03-01T07:33:11;100191.44;;;-3.30;77.94
78751;BME280;68070;50.954;11.060;2023-03-01T07:35:58;100190.39;;;-3.11;77.05
78751;BME280;68070;50.954;11.060;2023-03-01T07:38:44;100188.29;;;-2.97;76.06
78751;BME280;68070;50.954;11.060;2023-03-01T07:41:29;100192.95;;;-2.76;76.20
78751;BME280;68070;50.954;11.060;2023-03-01T07:44:14;100186.95;;;-2.47;76.26
78751;BME280;68070;50.954;11.060;2023-03-01T07:46:59;100189.65;;;-2.22;76.54
78751;BME280;68070;50.954;11.060;2023-03-01T07:49:44;100193.90;;;-1.99;76.24
78751;BME280;68070;50.954;11.060;2023-03-01T07:52:29;100192.77;;;-1.81;73.48
78751;BME280;68070;50.954;11.060;2023-03-01T07:55:15;100192.22;;;-1.78;72.26
78751;BME280;68070;50.954;11.060;2023-03-01T07:58:01;100192.32;;;-1.65;71.90
78751;BME280;68070;50.954;11.060;2023-03-01T08:00:45;100189.20;;;0.45;72.21
78751;BME280;68070;50.954;11.060;2023-03-01T08:03:30;100185.71;;;4.21;64.03
78751;BME280;68070;50.954;11.060;2023-03-01T08:06:15;100189.32;;;6.99;54.80
78751;BME280;68070;50.954;11.060;2023-03-01T08:09:00;100190.55;;;9.24;46.32
78751;BME280;68070;50.954;11.060;2023-03-01T08:11:44;100189.70;;;10.76;45.50
78751;BME280;68070;50.954;11.060;2023-03-01T08:14:29;100194.13;;;12.29;45.43
78751;BME280;68070;50.954;11.060;2023-03-01T08:17:13;100192.11;;;13.29;43.98
78751;BME280;68070;50.954;11.060;2023-03-01T08:19:58;100192.92;;;14.31;39.13
78751;BME280;68070;50.954;11.060;2023-03-01T08:22:42;100188.89;;;14.59;31.71
78751;BME280;68070;50.954;11.060;2023-03-01T08:25:27;100181.34;;;16.18;36.94
78751;BME280;68070;50.954;11.060;2023-03-01T08:28:11;100177.48;;;16.74;33.20
78751;BME280;68070;50.954;11.060;2023-03-01T08:30:56;100177.80;;;17.17;29.27
78751;BME280;68070;50.954;11.060;2023-03-01T08:33:41;100174.77;;;18.39;34.71
78751;BME280;68070;50.954;11.060;2023-03-01T08:36:29;100179.18;;;19.67;32.29
78751;BME280;68070;50.954;11.060;2023-03-01T08:39:14;100182.56;;;20.13;26.44
78751;BME280;68070;50.954;11.060;2023-03-01T08:41:59;100180.98;;;21.01;28.79
78751;BME280;68070;50.954;11.060;2023-03-01T08:44:44;100176.35;;;21.27;25.06
78751;BME280;68070;50.954;11.060;2023-03-01T08:47:29;100176.58;;;20.98;23.97
78751;BME280;68070;50.954;11.060;2023-03-01T08:50:13;100170.96;;;21.25;24.09
78751;BME280;68070;50.954;11.060;2023-03-01T08:52:57;100171.08;;;20.95;22.47
78751;BME280;68070;50.954;11.060;2023-03-01T08:55:42;100170.67;;;19.69;21.61
78751;BME280;68070;50.954;11.060;2023-03-01T08:58:26;100163.80;;;20.57;22.68
78751;BME280;68070;50.954;11.060;2023-03-01T09:01:11;100163.11;;;20.25;21.18
78751;BME280;68070;50.954;11.060;2023-03-01T09:03:56;100160.52;;;19.69;20.56
78751;BME280;68070;50.954;11.060;2023-03-01T09:06:41;100158.86;;;20.26;21.28
78751;BME280;68070;50.954;11.060;2023-03-01T09:09:25;100158.66;;;20.43;21.04
78751;BME280;68070;50.954;11.060;2023-03-01T09:12:10;100158.63;;;20.31;21.12
78751;BME280;68070;50.954;11.060;2023-03-01T09:14:55;100148.88;;;21.20;20.36
78751;BME280;68070;50.954;11.060;2023-03-01T09:17:39;100148.40;;;21.88;20.14
78751;BME280;68070;50.954;11.060;2023-03-01T09:20:25;100142.38;;;21.50;19.37
78751;BME280;68070;50.954;11.060;2023-03-01T09:23:09;100138.20;;;21.14;19.57
78751;BME280;68070;50.954;11.060;2023-03-01T09:25:55;100137.29;;;20.98;18.81
78751;BME280;68070;50.954;11.060;2023-03-01T09:28:40;100136.53;;;19.32;19.64
78751;BME280;68070;50.954;11.060;2023-03-01T09:31:28;100131.91;;;19.12;20.57
78751;BME280;68070;50.954;11.060;2023-03-01T09:34:13;100132.04;;;18.77;21.10
78751;BME280;68070;50.954;11.060;2023-03-01T09:37:00;100132.84;;;19.87;20.68
78751;BME280;68070;50.954;11.060;2023-03-01T09:39:47;100125.09;;;21.17;19.81
78751;BME280;68070;50.954;11.060;2023-03-01T09:42:32;100128.39;;;21.04;18.23
78751;BME280;68070;50.954;11.060;2023-03-01T09:45:26;100131.55;;;20.15;19.26
78751;BME280;68070;50.954;11.060;2023-03-01T09:48:16;100128.34;;;19.70;19.25
78751;BME280;68070;50.954;11.060;2023-03-01T09:51:02;100128.57;;;19.42;19.90
78751;BME280;68070;50.954;11.060;2023-03-01T09:53:49;100129.12;;;19.71;19.49
78751;BME280;68070;50.954;11.060;2023-03-01T09:56:37;100127.27;;;19.16;19.34
78751;BME280;68070;50.954;11.060;2023-03-01T10:08:14;100126.77;;;19.40;19.55
78751;BME280;68070;50.954;11.060;2023-03-01T10:11:04;100124.27;;;19.55;19.25
78751;BME280;68070;50.954;11.060;2023-03-01T10:17:02;100113.40;;;19.27;19.50
78751;BME280;68070;50.954;11.060;2023-03-01T10:19:48;100112.42;;;18.85;19.41
78751;BME280;68070;50.954;11.060;2023-03-01T10:22:33;100118.20;;;18.61;19.64
78751;BME280;68070;50.954;11.060;2023-03-01T10:28:25;100105.46;;;18.36;19.87
78751;BME280;68070;50.954;11.060;2023-03-01T10:31:18;100106.91;;;17.79;20.28
78751;BME280;68070;50.954;11.060;2023-03-01T10:34:08;100104.43;;;17.85;20.44
78751;BME280;68070;50.954;11.060;2023-03-01T10:36:55;100102.04;;;17.77;20.37
78751;BME280;68070;50.954;11.060;2023-03-01T10:42:54;100090.00;;;16.27;22.21
78751;BME280;68070;50.954;11.060;2023-03-01T10:45:41;100090.63;;;16.33;22.26
78751;BME280;68070;50.954;11.060;2023-03-01T10:48:26;100090.22;;;15.51;23.21
78751;BME280;68070;50.954;11.060;2023-03-01T10:51:17;100079.58;;;16.76;22.40
78751;BME280;68070;50.954;11.060;2023-03-01T10:54:03;100075.91;;;16.92;21.73
78751;BME280;68070;50.954;11.060;2023-03-01T10:56:51;100073.91;;;16.90;22.22
78751;BME280;68070;50.954;11.060;2023-03-01T10:59:37;100070.95;;;17.05;21.88
78751;BME280;68070;50.954;11.060;2023-03-01T11:02:27;100065.70;;;16.54;22.29
78751;BME280;68070;50.954;11.060;2023-03-01T11:07:57;100064.95;;;16.46;22.35
78751;BME280;68070;50.954;11.060;2023-03-01T11:10:41;100064.36;;;15.51;23.49
78751;BME280;68070;50.954;11.060;2023-03-01T11:13:26;100056.79;;;15.08;24.02
78751;BME280;68070;50.954;11.060;2023-03-01T11:16:11;100055.79;;;15.20;23.85
78751;BME280;68070;50.954;11.060;2023-03-01T11:21:59;100054.37;;;14.57;24.96
78751;BME280;68070;50.954;11.060;2023-03-01T11:24:52;100052.95;;;14.76;25.19
78751;BME280;68070;50.954;11.060;2023-03-01T11:27:40;100057.16;;;14.86;25.01
78751;BME280;68070;50.954;11.060;2023-03-01T11:30:29;100056.89;;;14.18;25.41
78751;BME280;68070;50.954;11.060;2023-03-01T11:36:13;100054.62;;;12.30;28.11
78751;BME280;68070;50.954;11.060;2023-03-01T11:39:05;100052.93;;;12.32;28.14
78751;BME280;68070;50.954;11.060;2023-03-01T11:42:03;100054.01;;;12.72;27.54
78751;BME280;68070;50.954;11.060;2023-03-01T11:44:52;100043.58;;;12.68;27.63
78751;BME280;68070;50.954;11.060;2023-03-01T11:50:44;100036.63;;;12.76;27.57
78751;BME280;68070;50.954;11.060;2023-03-01T11:53:36;100032.44;;;12.39;27.86
78751;BME280;68070;50.954;11.060;2023-03-01T11:56:31;100026.66;;;12.19;28.18
78751;BME280;68070;50.954;11.060;2023-03-01T11:59:31;100024.48;;;11.49;28.93
78751;BME280;68070;50.954;11.060;2023-03-01T12:02:27;100018.56;;;10.74;30.38
78751;BME280;68070;50.954;11.060;2023-03-01T12:05:36;100012.05;;;8.87;33.30
78751;BME280;68070;50.954;11.060;2023-03-01T12:37:35;100001.95;;;4.86;44.55
78751;BME280;68070;50.954;11.060;2023-03-01T12:40:33;99996.10;;;4.92;43.53
78751;BME280;68070;50.954;11.060;2023-03-01T12:43:27;99993.55;;;4.99;44.62
78751;BME280;68070;50.954;11.060;2023-03-01T12:46:19;99986.85;;;4.89;44.75
78751;BME280;68070;50.954;11.060;2023-03-01T12:49:08;99979.38;;;4.81;44.90
78751;BME280;68070;50.954;11.060;2023-03-01T12:51:56;99980.11;;;4.76;44.35
78751;BME280;68070;50.954;11.060;2023-03-01T12:54:43;99972.19;;;4.65;44.45
78751;BME280;68070;50.954;11.060;2023-03-01T12:57:33;99965.98;;;4.61;44.35
78751;BME280;68070;50.954;11.060;2023-03-01T13:00:33;99958.83;;;4.74;44.22
78751;BME280;68070;50.954;11.060;2023-03-01T13:09:31;99954.60;;;4.78;45.66
78751;BME280;68070;50.954;11.060;2023-03-01T13:12:52;99952.71;;;4.67;46.12
78751;BME280;68070;50.954;11.060;2023-03-01T13:15:38;99954.91;;;4.70;45.95
78751;BME280;68070;50.954;11.060;2023-03-01T13:21:10;99958.33;;;4.83;46.60
78751;BME280;68070;50.954;11.060;2023-03-01T13:23:54;99967.55;;;4.87;46.71
78751;BME280;68070;50.954;11.060;2023-03-01T13:29:58;99964.45;;;4.89;46.01
78751;BME280;68070;50.954;11.060;2023-03-01T13:32:47;99958.02;;;4.96;46.32
78751;BME280;68070;50.954;11.060;2023-03-01T13:35:41;99950.11;;;5.05;46.33
78751;BME280;68070;50.954;11.060;2023-03-01T13:38:56;99949.10;;;5.04;46.25
78751;BME280;68070;50.954;11.060;2023-03-01T13:44:36;99943.38;;;4.96;46.71
78751;BME280;68070;50.954;11.060;2023-03-01T13:47:23;99938.78;;;5.11;46.22
78751;BME280;68070;50.954;11.060;2023-03-01T13:50:18;99938.02;;;5.12;46.69
78751;BME280;68070;50.954;11.060;2023-03-01T13:53:05;99933.02;;;5.18;46.85
78751;BME280;68070;50.954;11.060;2023-03-01T13:55:54;99929.16;;;5.09;47.23
78751;BME280;68070;50.954;11.060;2023-03-01T13:58:58;99922.62;;;5.09;47.72
78751;BME280;68070;50.954;11.060;2023-03-01T14:01:43;99907.60;;;5.27;47.50
78751;BME280;68070;50.954;11.060;2023-03-01T14:04:30;99907.66;;;5.26;47.84
78751;BME280;68070;50.954;11.060;2023-03-01T14:07:22;99904.38;;;5.20;47.86
78751;BME280;68070;50.954;11.060;2023-03-01T14:10:11;99900.65;;;5.34;47.31
78751;BME280;68070;50.954;11.060;2023-03-01T14:19:18;99898.13;;;5.35;47.82
78751;BME280;68070;50.954;11.060;2023-03-01T14:22:20;99892.02;;;5.29;47.82
78751;BME280;68070;50.954;11.060;2023-03-01T14:25:21;99893.70;;;5.36;47.76
78751;BME280;68070;50.954;11.060;2023-03-01T14:31:01;99899.41;;;5.20;48.34
78751;BME280;68070;50.954;11.060;2023-03-01T14:33:54;99893.78;;;5.29;48.38
78751;BME280;68070;50.954;11.060;2023-03-01T14:36:39;99895.27;;;5.32;48.22
78751;BME280;68070;50.954;11.060;2023-03-01T14:39:25;99893.30;;;5.37;48.32
78751;BME280;68070;50.954;11.060;2023-03-01T14:42:12;99892.10;;;5.45;47.72
78751;BME280;68070;50.954;11.060;2023-03-01T14:44:57;99891.15;;;5.42;47.69
78751;BME280;68070;50.954;11.060;2023-03-01T14:47:44;99892.28;;;5.31;48.40
78751;BME280;68070;50.954;11.060;2023-03-01T14:50:34;99889.20;;;5.33;48.12
78751;BME280;68070;50.954;11.060;2023-03-01T14:53:29;99886.52;;;5.39;47.99
78751;BME280;68070;50.954;11.060;2023-03-01T14:56:16;99879.39;;;5.40;47.81
78751;BME280;68070;50.954;11.060;2023-03-01T14:59:04;99878.38;;;5.21;48.13
78751;BME280;68070;50.954;11.060;2023-03-01T15:01:50;99877.04;;;5.24;47.22
78751;BME280;68070;50.954;11.060;2023-03-01T15:04:35;99878.66;;;5.05;47.21
78751;BME280;68070;50.954;11.060;2023-03-01T15:07:20;99877.65;;;4.99;47.50
78751;BME280;68070;50.954;11.060;2023-03-01T15:10:07;99882.23;;;5.13;47.08
78751;BME280;68070;50.954;11.060;2023-03-01T15:13:12;99880.95;;;5.14;47.33
78751;BME280;68070;50.954;11.060;2023-03-01T15:16:06;99873.59;;;5.17;47.48
78751;BME280;68070;50.954;11.060;2023-03-01T15:18:54;99868.31;;;5.08;47.44
78751;BME280;68070;50.954;11.060;2023-03-01T15:21:44;99868.23;;;5.10;46.91
78751;BME280;68070;50.954;11.060;2023-03-01T15:24:31;99866.30;;;5.05;46.99
78751;BME280;68070;50.954;11.060;2023-03-01T15:27:23;99863.64;;;5.01;46.56
78751;BME280;68070;50.954;11.060;2023-03-01T15:30:17;99867.45;;;4.89;46.44
78751;BME280;68070;50.954;11.060;2023-03-01T15:36:36;99864.81;;;4.93;46.39
78751;BME280;68070;50.954;11.060;2023-03-01T15:39:29;99863.36;;;4.90;46.22
78751;BME280;68070;50.954;11.060;2023-03-01T15:48:25;99870.05;;;4.67;45.58
78751;BME280;68070;50.954;11.060;2023-03-01T15:51:12;99871.52;;;4.60;45.47
78751;BME280;68070;50.954;11.060;2023-03-01T15:54:01;99867.63;;;4.51;45.19
78751;BME280;68070;50.954;11.060;2023-03-01T15:56:46;99870.91;;;4.48;45.46
78751;BME280;68070;50.954;11.060;2023-03-01T15:59:30;99874.21;;;4.45;45.71
78751;BME280;68070;50.954;11.060;2023-03-01T16:02:15;99876.91;;;4.33;46.42
78751;BME280;68070;50.954;11.060;2023-03-01T16:05:00;99878.36;;;4.32;46.36
78751;BME280;68070;50.954;11.060;2023-03-01T16:07:45;99877.79;;;4.28;46.80